sensor_id;sensor_type;location;lat;lon;timestamp;temperature;humidity
37844;DHT22;63793;57.632;18.292;2023-12-20T00:01:06;4.00;99.90
37844;DHT22;63793;57.632;18.292;2023-12-20T00:03:33;4.00;99.90
37844;DHT22;63793;57.632;18.292;2023-12-20T00:06:08;3.90;99.90
37844;DHT22;63793;57.632;18.292;2023-12-20T00:08:35;3.90;99.90
37844;DHT22;63793;57.632;18.292;2023-12-20T00:11:02;3.90;99.90
37844;DHT22;63793;57.632;18.292;2023-12-20T00:13:29;3.90;99.90
37844;DHT22;63793;57.632;18.292;2023-12-20T00:15:56;3.90;99.90
37844;DHT22;63793;57.632;18.292;2023-12-20T00:18:23;3.90;99.90
37844;DHT22;63793;57.632;18.292;2023-12-20T00:20:50;3.90;99.90
37844;DHT22;63793;57.632;18.292;2023-12-20T00:23:17;3.90;99.90
37844;DHT22;63793;57.632;18.292;2023-12-20T00:25:44;3.90;99.90
37844;DHT22;63793;57.632;18.292;2023-12-20T00:28:10;3.90;99.90
37844;DHT22;63793;57.632;18.292;2023-12-20T00:30:37;3.90;99.90
37844;DHT22;63793;57.632;18.292;2023-12-20T00:33:04;3.90;99.90
37844;DHT22;63793;57.632;18.292;2023-12-20T00:35:31;3.80;99.90
37844;DHT22;63793;57.632;18.292;2023-12-20T00:37:58;3.90;99.90
37844;DHT22;63793;57.632;18.292;2023-12-20T00:40:25;3.80;99.90
37844;DHT22;63793;57.632;18.292;2023-12-20T00:42:52;3.80;99.90
37844;DHT22;63793;57.632;18.292;2023-12-20T00:45:19;3.80;99.90
37844;DHT22;63793;57.632;18.292;2023-12-20T00:47:46;3.80;99.90
37844;DHT22;63793;57.632;18.292;2023-12-20T00:50:13;3.90;99.90
37844;DHT22;63793;57.632;18.292;2023-12-20T00:52:40;3.80;99.90
37844;DHT22;63793;57.632;18.292;2023-12-20T00:55:07;3.80;99.90
37844;DHT22;63793;57.632;18.292;2023-12-20T00:57:34;3.80;99.90
37844;DHT22;63793;57.632;18.292;2023-12-20T01:00:01;3.80;99.90
37844;DHT22;63793;57.632;18.292;2023-12-20T01:02:28;3.80;99.90
37844;DHT22;63793;57.632;18.292;2023-12-20T01:04:55;3.80;99.90
37844;DHT22;63793;57.632;18.292;2023-12-20T01:07:22;3.90;99.90
37844;DHT22;63793;57.632;18.292;2023-12-20T01:09:49;3.90;99.90
37844;DHT22;63793;57.632;18.292;2023-12-20T01:12:16;3.90;99.90
37844;DHT22;63793;57.632;18.292;2023-12-20T01:14:43;3.90;99.90
37844;DHT22;63793;57.632;18.292;2023-12-20T01:17:10;3.90;99.90
37844;DHT22;63793;57.632;18.292;2023-12-20T01:19:36;3.90;99.90
37844;DHT22;63793;57.632;18.292;2023-12-20T01:22:04;3.90;99.90
37844;DHT22;63793;57.632;18.292;2023-12-20T01:24:30;3.90;99.90
37844;DHT22;63793;57.632;18.292;2023-12-20T01:26:57;3.90;99.90
37844;DHT22;63793;57.632;18.292;2023-12-20T01:29:24;3.90;99.90
37844;DHT22;63793;57.632;18.292;2023-12-20T01:31:51;3.90;99.90
37844;DHT22;63793;57.632;18.292;2023-12-20T01:34:18;3.90;99.90
37844;DHT22;63793;57.632;18.292;2023-12-20T01:36:45;3.90;99.90
37844;DHT22;63793;57.632;18.292;2023-12-20T01:39:12;3.90;99.90
37844;DHT22;63793;57.632;18.292;2023-12-20T01:41:53;3.90;99.90
37844;DHT22;63793;57.632;18.292;2023-12-20T01:44:20;4.00;99.90
37844;DHT22;63793;57.632;18.292;2023-12-20T01:46:47;4.00;99.90
37844;DHT22;63793;57.632;18.292;2023-12-20T01:49:14;4.00;99.90
37844;DHT22;63793;57.632;18.292;2023-12-20T01:51:41;4.00;99.90
37844;DHT22;63793;57.632;18.292;2023-12-20T01:54:08;4.00;99.90
37844;DHT22;63793;57.632;18.292;2023-12-20T01:56:35;4.00;99.90
37844;DHT22;63793;57.632;18.292;2023-12-20T01:59:02;4.00;99.90
37844;DHT22;63793;57.632;18.292;2023-12-20T02:01:31;4.00;99.90
37844;DHT22;63793;57.632;18.292;2023-12-20T02:03:58;4.00;99.90
37844;DHT22;63793;57.632;18.292;2023-12-20T02:06:26;4.00;99.90
37844;DHT22;63793;57.632;18.292;2023-12-20T02:08:55;4.00;99.90
37844;DHT22;63793;57.632;18.292;2023-12-20T02:11:23;4.00;99.90
37844;DHT22;63793;57.632;18.292;2023-12-20T02:13:51;4.00;99.90
37844;DHT22;63793;57.632;18.292;2023-12-20T02:16:18;4.00;99.90
37844;DHT22;63793;57.632;18.292;2023-12-20T02:18:45;4.00;99.90
37844;DHT22;63793;57.632;18.292;2023-12-20T02:21:12;4.00;99.90
37844;DHT22;63793;57.632;18.292;2023-12-20T02:23:39;4.00;99.90
37844;DHT22;63793;57.632;18.292;2023-12-20T02:26:06;4.00;99.90
37844;DHT22;63793;57.632;18.292;2023-12-20T02:28:33;4.00;99.90
37844;DHT22;63793;57.632;18.292;2023-12-20T02:31:01;4.00;99.90
37844;DHT22;63793;57.632;18.292;2023-12-20T02:33:28;3.90;99.90
37844;DHT22;63793;57.632;18.292;2023-12-20T02:35:54;3.90;99.90
37844;DHT22;63793;57.632;18.292;2023-12-20T02:38:21;3.90;99.90
37844;DHT22;63793;57.632;18.292;2023-12-20T02:40:48;4.00;99.90
37844;DHT22;63793;57.632;18.292;2023-12-20T02:43:15;4.00;99.90
37844;DHT22;63793;57.632;18.292;2023-12-20T02:45:43;4.00;99.90
37844;DHT22;63793;57.632;18.292;2023-12-20T02:48:10;4.00;99.90
37844;DHT22;63793;57.632;18.292;2023-12-20T02:50:36;3.90;99.90
37844;DHT22;63793;57.632;18.292;2023-12-20T02:53:03;3.90;99.90
37844;DHT22;63793;57.632;18.292;2023-12-20T02:55:30;3.90;99.90
37844;DHT22;63793;57.632;18.292;2023-12-20T02:57:57;3.90;99.90
37844;DHT22;63793;57.632;18.292;2023-12-20T03:00:24;3.90;99.90
37844;DHT22;63793;57.632;18.292;2023-12-20T03:02:51;3.90;99.90
37844;DHT22;63793;57.632;18.292;2023-12-20T03:05:18;3.90;99.90
37844;DHT22;63793;57.632;18.292;2023-12-20T03:07:45;3.90;99.90
37844;DHT22;63793;57.632;18.292;2023-12-20T03:10:12;3.90;99.90
37844;DHT22;63793;57.632;18.292;2023-12-20T03:12:49;3.90;99.90
37844;DHT22;63793;57.632;18.292;2023-12-20T03:15:16;3.90;99.90
37844;DHT22;63793;57.632;18.292;2023-12-20T03:17:43;3.90;99.90
37844;DHT22;63793;57.632;18.292;2023-12-20T03:20:11;3.90;99.90
37844;DHT22;63793;57.632;18.292;2023-12-20T03:22:38;3.90;99.90
37844;DHT22;63793;57.632;18.292;2023-12-20T03:25:04;3.90;99.90
37844;DHT22;63793;57.632;18.292;2023-12-20T03:27:31;3.90;99.90
37844;DHT22;63793;57.632;18.292;2023-12-20T03:29:58;3.90;99.90
37844;DHT22;63793;57.632;18.292;2023-12-20T03:32:25;3.90;99.90
37844;DHT22;63793;57.632;18.292;2023-12-20T03:34:52;3.90;99.90
37844;DHT22;63793;57.632;18.292;2023-12-20T03:37:19;3.90;99.90
37844;DHT22;63793;57.632;18.292;2023-12-20T03:39:46;3.90;99.90
37844;DHT22;63793;57.632;18.292;2023-12-20T03:42:13;3.90;99.90
37844;DHT22;63793;57.632;18.292;2023-12-20T03:44:40;3.90;99.90
37844;DHT22;63793;57.632;18.292;2023-12-20T03:47:07;3.90;99.90
37844;DHT22;63793;57.632;18.292;2023-12-20T03:49:34;3.90;99.90
37844;DHT22;63793;57.632;18.292;2023-12-20T03:52:04;3.90;99.90
37844;DHT22;63793;57.632;18.292;2023-12-20T03:54:31;3.90;99.90
37844;DHT22;63793;57.632;18.292;2023-12-20T03:56:58;3.90;99.90
37844;DHT22;63793;57.632;18.292;2023-12-20T03:59:24;3.90;99.90
37844;DHT22;63793;57.632;18.292;2023-12-20T04:01:51;4.00;99.90
37844;DHT22;63793;57.632;18.292;2023-12-20T04:04:18;4.00;99.90
37844;DHT22;63793;57.632;18.292;2023-12-20T04:06:45;4.00;99.90
37844;DHT22;63793;57.632;18.292;2023-12-20T04:09:12;4.00;99.90
37844;DHT22;63793;57.632;18.292;2023-12-20T04:11:39;3.90;99.90
37844;DHT22;63793;57.632;18.292;2023-12-20T04:14:06;3.90;99.90
37844;DHT22;63793;57.632;18.292;2023-12-20T04:16:34;3.90;99.90
37844;DHT22;63793;57.632;18.292;2023-12-20T04:19:01;3.90;99.90
37844;DHT22;63793;57.632;18.292;2023-12-20T04:21:29;3.90;99.90
37844;DHT22;63793;57.632;18.292;2023-12-20T04:23:56;3.90;99.90
37844;DHT22;63793;57.632;18.292;2023-12-20T04:26:23;4.00;99.90
37844;DHT22;63793;57.632;18.292;2023-12-20T04:28:50;4.00;99.90
37844;DHT22;63793;57.632;18.292;2023-12-20T04:31:20;4.00;99.90
37844;DHT22;63793;57.632;18.292;2023-12-20T04:33:47;4.00;99.90
37844;DHT22;63793;57.632;18.292;2023-12-20T04:36:14;4.10;99.90
37844;DHT22;63793;57.632;18.292;2023-12-20T04:38:41;4.20;99.90
37844;DHT22;63793;57.632;18.292;2023-12-20T04:41:08;4.20;99.90
37844;DHT22;63793;57.632;18.292;2023-12-20T04:43:34;4.20;99.90
37844;DHT22;63793;57.632;18.292;2023-12-20T04:46:01;4.20;99.90
37844;DHT22;63793;57.632;18.292;2023-12-20T04:48:28;4.20;99.90
37844;DHT22;63793;57.632;18.292;2023-12-20T04:50:55;4.20;99.90
37844;DHT22;63793;57.632;18.292;2023-12-20T04:53:22;4.30;99.90
37844;DHT22;63793;57.632;18.292;2023-12-20T04:55:49;4.30;99.90
37844;DHT22;63793;57.632;18.292;2023-12-20T04:58:16;4.30;99.90
37844;DHT22;63793;57.632;18.292;2023-12-20T05:00:43;4.30;99.90
37844;DHT22;63793;57.632;18.292;2023-12-20T05:03:10;4.30;99.90
37844;DHT22;63793;57.632;18.292;2023-12-20T05:05:37;4.40;99.90
37844;DHT22;63793;57.632;18.292;2023-12-20T05:08:04;4.30;99.90
37844;DHT22;63793;57.632;18.292;2023-12-20T05:10:31;4.30;99.90
37844;DHT22;63793;57.632;18.292;2023-12-20T05:12:58;4.30;99.90
37844;DHT22;63793;57.632;18.292;2023-12-20T05:15:24;4.20;99.90
37844;DHT22;63793;57.632;18.292;2023-12-20T05:17:51;4.20;99.90
37844;DHT22;63793;57.632;18.292;2023-12-20T05:20:18;4.20;99.90
37844;DHT22;63793;57.632;18.292;2023-12-20T05:22:45;4.20;99.90
37844;DHT22;63793;57.632;18.292;2023-12-20T05:25:12;4.20;99.90
37844;DHT22;63793;57.632;18.292;2023-12-20T05:27:39;4.20;99.90
37844;DHT22;63793;57.632;18.292;2023-12-20T05:30:06;4.20;99.90
37844;DHT22;63793;57.632;18.292;2023-12-20T05:32:33;4.10;99.90
37844;DHT22;63793;57.632;18.292;2023-12-20T05:35:00;4.10;99.90
37844;DHT22;63793;57.632;18.292;2023-12-20T05:37:27;4.10;99.90
37844;DHT22;63793;57.632;18.292;2023-12-20T05:39:54;4.10;99.90
37844;DHT22;63793;57.632;18.292;2023-12-20T05:42:21;4.10;99.90
37844;DHT22;63793;57.632;18.292;2023-12-20T05:44:47;4.10;99.90
37844;DHT22;63793;57.632;18.292;2023-12-20T05:47:16;4.10;99.90
37844;DHT22;63793;57.632;18.292;2023-12-20T05:49:43;4.00;99.90
37844;DHT22;63793;57.632;18.292;2023-12-20T05:52:10;4.10;99.90
37844;DHT22;63793;57.632;18.292;2023-12-20T05:54:37;4.00;99.90
37844;DHT22;63793;57.632;18.292;2023-12-20T05:57:04;4.00;99.90
37844;DHT22;63793;57.632;18.292;2023-12-20T05:59:31;4.00;99.90
37844;DHT22;63793;57.632;18.292;2023-12-20T06:01:57;4.00;99.90
37844;DHT22;63793;57.632;18.292;2023-12-20T06:04:24;4.00;99.90
37844;DHT22;63793;57.632;18.292;2023-12-20T06:06:51;4.00;99.90
37844;DHT22;63793;57.632;18.292;2023-12-20T06:09:18;3.90;99.90
37844;DHT22;63793;57.632;18.292;2023-12-20T06:11:46;3.90;99.90
37844;DHT22;63793;57.632;18.292;2023-12-20T06:14:12;3.90;99.90
37844;DHT22;63793;57.632;18.292;2023-12-20T06:16:39;3.90;99.90
37844;DHT22;63793;57.632;18.292;2023-12-20T06:19:06;3.90;99.90
37844;DHT22;63793;57.632;18.292;2023-12-20T06:21:33;3.90;99.90
37844;DHT22;63793;57.632;18.292;2023-12-20T06:24:00;3.90;99.90
37844;DHT22;63793;57.632;18.292;2023-12-20T06:26:27;3.90;99.90
37844;DHT22;63793;57.632;18.292;2023-12-20T06:28:53;3.80;99.90
37844;DHT22;63793;57.632;18.292;2023-12-20T06:31:20;3.80;99.90
37844;DHT22;63793;57.632;18.292;2023-12-20T06:33:47;3.90;99.90
37844;DHT22;63793;57.632;18.292;2023-12-20T06:36:16;3.80;99.90
37844;DHT22;63793;57.632;18.292;2023-12-20T06:38:43;3.80;99.90
37844;DHT22;63793;57.632;18.292;2023-12-20T06:41:12;3.80;99.90
37844;DHT22;63793;57.632;18.292;2023-12-20T06:43:40;3.80;99.90
37844;DHT22;63793;57.632;18.292;2023-12-20T06:46:15;3.80;99.90
37844;DHT22;63793;57.632;18.292;2023-12-20T06:48:44;3.80;99.90
37844;DHT22;63793;57.632;18.292;2023-12-20T06:51:12;3.80;99.90
37844;DHT22;63793;57.632;18.292;2023-12-20T06:53:39;3.80;99.90
37844;DHT22;63793;57.632;18.292;2023-12-20T06:56:06;3.80;99.90
37844;DHT22;63793;57.632;18.292;2023-12-20T06:58:34;3.80;99.90
37844;DHT22;63793;57.632;18.292;2023-12-20T07:01:00;3.80;99.90
37844;DHT22;63793;57.632;18.292;2023-12-20T07:03:27;3.80;99.90
37844;DHT22;63793;57.632;18.292;2023-12-20T07:05:54;3.80;99.90
37844;DHT22;63793;57.632;18.292;2023-12-20T07:08:21;3.80;99.90
37844;DHT22;63793;57.632;18.292;2023-12-20T07:10:48;3.80;99.90
37844;DHT22;63793;57.632;18.292;2023-12-20T07:13:15;3.80;99.90
37844;DHT22;63793;57.632;18.292;2023-12-20T07:15:41;3.80;99.90
37844;DHT22;63793;57.632;18.292;2023-12-20T07:18:10;3.80;99.90
37844;DHT22;63793;57.632;18.292;2023-12-20T07:20:37;3.80;99.90
37844;DHT22;63793;57.632;18.292;2023-12-20T07:23:04;3.80;99.90
37844;DHT22;63793;57.632;18.292;2023-12-20T07:25:31;3.80;99.90
37844;DHT22;63793;57.632;18.292;2023-12-20T07:28:00;3.80;99.90
37844;DHT22;63793;57.632;18.292;2023-12-20T07:30:27;3.80;99.90
37844;DHT22;63793;57.632;18.292;2023-12-20T07:32:55;3.80;99.90
37844;DHT22;63793;57.632;18.292;2023-12-20T07:35:23;3.80;99.90
37844;DHT22;63793;57.632;18.292;2023-12-20T07:37:50;3.70;99.90
37844;DHT22;63793;57.632;18.292;2023-12-20T07:40:17;3.70;99.90
37844;DHT22;63793;57.632;18.292;2023-12-20T07:42:44;3.70;99.90
37844;DHT22;63793;57.632;18.292;2023-12-20T07:45:10;3.70;99.90
37844;DHT22;63793;57.632;18.292;2023-12-20T07:47:38;3.60;99.90
37844;DHT22;63793;57.632;18.292;2023-12-20T07:50:05;3.50;99.90
37844;DHT22;63793;57.632;18.292;2023-12-20T07:52:32;3.50;99.90
37844;DHT22;63793;57.632;18.292;2023-12-20T07:54:59;3.50;99.90
37844;DHT22;63793;57.632;18.292;2023-12-20T07:57:28;3.50;99.90
37844;DHT22;63793;57.632;18.292;2023-12-20T07:59:55;3.50;99.90
37844;DHT22;63793;57.632;18.292;2023-12-20T08:02:22;3.40;99.90
37844;DHT22;63793;57.632;18.292;2023-12-20T08:04:48;3.40;99.90
37844;DHT22;63793;57.632;18.292;2023-12-20T08:07:15;3.40;99.90
37844;DHT22;63793;57.632;18.292;2023-12-20T08:09:42;3.50;99.90
37844;DHT22;63793;57.632;18.292;2023-12-20T08:12:10;3.50;99.90
37844;DHT22;63793;57.632;18.292;2023-12-20T08:14:37;3.50;99.90
37844;DHT22;63793;57.632;18.292;2023-12-20T08:17:04;3.50;99.90
37844;DHT22;63793;57.632;18.292;2023-12-20T08:19:31;3.50;99.90
37844;DHT22;63793;57.632;18.292;2023-12-20T08:21:58;3.60;99.90
37844;DHT22;63793;57.632;18.292;2023-12-20T08:24:25;3.60;99.90
37844;DHT22;63793;57.632;18.292;2023-12-20T08:26:51;3.60;99.90
37844;DHT22;63793;57.632;18.292;2023-12-20T08:29:19;3.70;99.90
37844;DHT22;63793;57.632;18.292;2023-12-20T08:31:45;3.70;99.90
37844;DHT22;63793;57.632;18.292;2023-12-20T08:34:13;3.70;99.90
37844;DHT22;63793;57.632;18.292;2023-12-20T08:36:42;3.80;99.90
37844;DHT22;63793;57.632;18.292;2023-12-20T08:39:08;3.80;99.90
37844;DHT22;63793;57.632;18.292;2023-12-20T08:41:35;3.80;99.90
37844;DHT22;63793;57.632;18.292;2023-12-20T08:44:03;3.90;99.90
37844;DHT22;63793;57.632;18.292;2023-12-20T08:46:30;3.90;99.90
37844;DHT22;63793;57.632;18.292;2023-12-20T08:48:57;3.90;99.90
37844;DHT22;63793;57.632;18.292;2023-12-20T08:51:24;3.90;99.90
37844;DHT22;63793;57.632;18.292;2023-12-20T08:53:52;3.90;99.90
37844;DHT22;63793;57.632;18.292;2023-12-20T08:56:19;4.00;99.90
37844;DHT22;63793;57.632;18.292;2023-12-20T08:58:46;4.00;99.90
37844;DHT22;63793;57.632;18.292;2023-12-20T09:01:13;4.00;99.90
37844;DHT22;63793;57.632;18.292;2023-12-20T09:03:40;4.00;99.90
37844;DHT22;63793;57.632;18.292;2023-12-20T09:06:07;4.00;99.90
37844;DHT22;63793;57.632;18.292;2023-12-20T09:08:34;4.00;99.90
37844;DHT22;63793;57.632;18.292;2023-12-20T09:11:01;4.00;99.90
37844;DHT22;63793;57.632;18.292;2023-12-20T09:13:29;4.00;99.90
37844;DHT22;63793;57.632;18.292;2023-12-20T09:15:56;4.00;99.90
37844;DHT22;63793;57.632;18.292;2023-12-20T09:18:23;4.00;99.90
37844;DHT22;63793;57.632;18.292;2023-12-20T09:20:50;4.10;99.90
37844;DHT22;63793;57.632;18.292;2023-12-20T09:23:17;4.00;99.90
37844;DHT22;63793;57.632;18.292;2023-12-20T09:25:45;4.00;99.90
37844;DHT22;63793;57.632;18.292;2023-12-20T09:28:12;4.00;99.90
37844;DHT22;63793;57.632;18.292;2023-12-20T09:30:39;4.00;99.90
37844;DHT22;63793;57.632;18.292;2023-12-20T09:33:07;4.00;99.90
37844;DHT22;63793;57.632;18.292;2023-12-20T09:35:35;4.00;99.90
37844;DHT22;63793;57.632;18.292;2023-12-20T09:38:02;4.10;99.90
37844;DHT22;63793;57.632;18.292;2023-12-20T09:40:29;4.10;99.90
37844;DHT22;63793;57.632;18.292;2023-12-20T09:42:57;4.10;99.90
37844;DHT22;63793;57.632;18.292;2023-12-20T09:45:25;4.10;99.90
37844;DHT22;63793;57.632;18.292;2023-12-20T09:47:52;4.10;99.90
37844;DHT22;63793;57.632;18.292;2023-12-20T09:50:19;4.10;99.90
37844;DHT22;63793;57.632;18.292;2023-12-20T09:52:50;4.10;99.90
37844;DHT22;63793;57.632;18.292;2023-12-20T09:55:18;4.10;99.90
37844;DHT22;63793;57.632;18.292;2023-12-20T09:57:49;4.10;99.90
37844;DHT22;63793;57.632;18.292;2023-12-20T10:00:16;4.10;99.90
37844;DHT22;63793;57.632;18.292;2023-12-20T10:02:49;4.10;99.90
37844;DHT22;63793;57.632;18.292;2023-12-20T10:05:17;4.10;99.90
37844;DHT22;63793;57.632;18.292;2023-12-20T10:07:47;4.10;99.90
37844;DHT22;63793;57.632;18.292;2023-12-20T10:10:15;4.10;99.90
37844;DHT22;63793;57.632;18.292;2023-12-20T10:12:46;4.10;99.90
37844;DHT22;63793;57.632;18.292;2023-12-20T10:15:27;4.10;99.90
37844;DHT22;63793;57.632;18.292;2023-12-20T10:17:54;4.10;99.90
37844;DHT22;63793;57.632;18.292;2023-12-20T10:20:26;4.10;99.90
37844;DHT22;63793;57.632;18.292;2023-12-20T10:22:54;4.10;99.90
37844;DHT22;63793;57.632;18.292;2023-12-20T10:25:21;4.00;99.90
37844;DHT22;63793;57.632;18.292;2023-12-20T10:27:49;4.10;99.90
37844;DHT22;63793;57.632;18.292;2023-12-20T10:30:16;4.00;99.90
37844;DHT22;63793;57.632;18.292;2023-12-20T10:32:43;4.00;99.90
37844;DHT22;63793;57.632;18.292;2023-12-20T10:35:10;4.00;99.90
37844;DHT22;63793;57.632;18.292;2023-12-20T10:37:37;4.00;99.90
37844;DHT22;63793;57.632;18.292;2023-12-20T10:40:04;4.00;99.90
37844;DHT22;63793;57.632;18.292;2023-12-20T10:42:32;4.00;99.90
37844;DHT22;63793;57.632;18.292;2023-12-20T10:45:02;4.00;99.90
37844;DHT22;63793;57.632;18.292;2023-12-20T10:47:30;4.00;99.90
37844;DHT22;63793;57.632;18.292;2023-12-20T10:49:57;4.00;99.90
37844;DHT22;63793;57.632;18.292;2023-12-20T10:52:26;4.00;99.90
37844;DHT22;63793;57.632;18.292;2023-12-20T10:54:54;4.00;99.90
37844;DHT22;63793;57.632;18.292;2023-12-20T10:57:24;4.10;99.90
37844;DHT22;63793;57.632;18.292;2023-12-20T10:59:53;4.10;99.90
37844;DHT22;63793;57.632;18.292;2023-12-20T11:02:21;4.10;99.90
37844;DHT22;63793;57.632;18.292;2023-12-20T11:10:16;4.10;99.90
37844;DHT22;63793;57.632;18.292;2023-12-20T11:15:27;4.10;99.90
37844;DHT22;63793;57.632;18.292;2023-12-20T11:17:55;4.10;99.90
37844;DHT22;63793;57.632;18.292;2023-12-20T11:20:23;4.20;99.90
37844;DHT22;63793;57.632;18.292;2023-12-20T11:22:53;4.20;99.90
37844;DHT22;63793;57.632;18.292;2023-12-20T11:25:20;4.20;99.90
37844;DHT22;63793;57.632;18.292;2023-12-20T11:28:07;4.20;99.90
37844;DHT22;63793;57.632;18.292;2023-12-20T11:33:08;4.20;99.90
37844;DHT22;63793;57.632;18.292;2023-12-20T11:35:35;4.20;99.90
37844;DHT22;63793;57.632;18.292;2023-12-20T11:38:03;4.20;99.90
37844;DHT22;63793;57.632;18.292;2023-12-20T11:40:31;4.20;99.90
37844;DHT22;63793;57.632;18.292;2023-12-20T11:43:00;4.20;99.90
37844;DHT22;63793;57.632;18.292;2023-12-20T11:45:27;4.20;99.90
37844;DHT22;63793;57.632;18.292;2023-12-20T11:47:56;4.20;99.90
37844;DHT22;63793;57.632;18.292;2023-12-20T11:50:24;4.20;99.90
37844;DHT22;63793;57.632;18.292;2023-12-20T11:52:52;4.20;99.90
37844;DHT22;63793;57.632;18.292;2023-12-20T11:55:19;4.20;99.90
37844;DHT22;63793;57.632;18.292;2023-12-20T11:57:47;4.20;99.90
37844;DHT22;63793;57.632;18.292;2023-12-20T12:00:14;4.30;99.90
37844;DHT22;63793;57.632;18.292;2023-12-20T12:02:41;4.20;99.90
37844;DHT22;63793;57.632;18.292;2023-12-20T12:05:11;4.30;99.90
37844;DHT22;63793;57.632;18.292;2023-12-20T12:07:38;4.30;99.90
37844;DHT22;63793;57.632;18.292;2023-12-20T12:10:05;4.30;99.90
37844;DHT22;63793;57.632;18.292;2023-12-20T12:12:32;4.30;99.90
37844;DHT22;63793;57.632;18.292;2023-12-20T12:14:59;4.30;99.90
37844;DHT22;63793;57.632;18.292;2023-12-20T12:17:26;4.30;99.90
37844;DHT22;63793;57.632;18.292;2023-12-20T12:20:01;4.30;99.90
37844;DHT22;63793;57.632;18.292;2023-12-20T12:22:28;4.30;99.90
37844;DHT22;63793;57.632;18.292;2023-12-20T12:24:58;4.30;99.90
37844;DHT22;63793;57.632;18.292;2023-12-20T12:27:25;4.30;99.90
37844;DHT22;63793;57.632;18.292;2023-12-20T12:30:01;4.30;99.90
37844;DHT22;63793;57.632;18.292;2023-12-20T12:32:30;4.30;99.90
37844;DHT22;63793;57.632;18.292;2023-12-20T12:34:57;4.40;99.90
37844;DHT22;63793;57.632;18.292;2023-12-20T12:37:24;4.40;99.90
37844;DHT22;63793;57.632;18.292;2023-12-20T12:39:53;4.40;99.90
37844;DHT22;63793;57.632;18.292;2023-12-20T12:42:20;4.40;99.90
37844;DHT22;63793;57.632;18.292;2023-12-20T12:44:47;4.40;99.90
37844;DHT22;63793;57.632;18.292;2023-12-20T12:47:14;4.40;99.90
37844;DHT22;63793;57.632;18.292;2023-12-20T12:49:40;4.40;99.90
37844;DHT22;63793;57.632;18.292;2023-12-20T12:52:07;4.40;99.90
37844;DHT22;63793;57.632;18.292;2023-12-20T12:54:34;4.40;99.90
37844;DHT22;63793;57.632;18.292;2023-12-20T12:57:01;4.40;99.90
37844;DHT22;63793;57.632;18.292;2023-12-20T12:59:28;4.40;99.90
37844;DHT22;63793;57.632;18.292;2023-12-20T13:01:55;4.40;99.90
37844;DHT22;63793;57.632;18.292;2023-12-20T13:04:22;4.40;99.90
37844;DHT22;63793;57.632;18.292;2023-12-20T13:06:49;4.40;99.90
37844;DHT22;63793;57.632;18.292;2023-12-20T13:09:16;4.40;99.90
37844;DHT22;63793;57.632;18.292;2023-12-20T13:11:43;4.30;99.90
37844;DHT22;63793;57.632;18.292;2023-12-20T13:14:10;4.30;99.90
37844;DHT22;63793;57.632;18.292;2023-12-20T13:16:41;4.30;99.90
37844;DHT22;63793;57.632;18.292;2023-12-20T13:19:09;4.30;99.90
37844;DHT22;63793;57.632;18.292;2023-12-20T13:21:36;4.30;99.90
37844;DHT22;63793;57.632;18.292;2023-12-20T13:24:03;4.30;99.90
37844;DHT22;63793;57.632;18.292;2023-12-20T13:26:30;4.30;99.90
37844;DHT22;63793;57.632;18.292;2023-12-20T13:28:57;4.30;99.90
37844;DHT22;63793;57.632;18.292;2023-12-20T13:31:24;4.30;99.90
37844;DHT22;63793;57.632;18.292;2023-12-20T13:33:51;4.30;99.90
37844;DHT22;63793;57.632;18.292;2023-12-20T13:36:19;4.30;99.90
37844;DHT22;63793;57.632;18.292;2023-12-20T13:38:46;4.30;99.90
37844;DHT22;63793;57.632;18.292;2023-12-20T13:41:13;4.30;99.90
37844;DHT22;63793;57.632;18.292;2023-12-20T13:43:39;4.30;99.90
37844;DHT22;63793;57.632;18.292;2023-12-20T13:46:06;4.30;99.90
37844;DHT22;63793;57.632;18.292;2023-12-20T13:48:33;4.30;99.90
37844;DHT22;63793;57.632;18.292;2023-12-20T13:51:00;4.30;99.90
37844;DHT22;63793;57.632;18.292;2023-12-20T13:53:28;4.30;99.90
37844;DHT22;63793;57.632;18.292;2023-12-20T13:55:55;4.30;99.90
37844;DHT22;63793;57.632;18.292;2023-12-20T13:58:21;4.30;99.90
37844;DHT22;63793;57.632;18.292;2023-12-20T14:00:48;4.30;99.90
37844;DHT22;63793;57.632;18.292;2023-12-20T14:03:15;4.30;99.90
37844;DHT22;63793;57.632;18.292;2023-12-20T14:05:42;4.30;99.90
37844;DHT22;63793;57.632;18.292;2023-12-20T14:08:09;4.30;99.90
37844;DHT22;63793;57.632;18.292;2023-12-20T14:10:36;4.20;99.90
37844;DHT22;63793;57.632;18.292;2023-12-20T14:13:04;4.20;99.90
37844;DHT22;63793;57.632;18.292;2023-12-20T14:15:32;4.20;99.90
37844;DHT22;63793;57.632;18.292;2023-12-20T14:18:06;4.20;99.90
37844;DHT22;63793;57.632;18.292;2023-12-20T14:20:34;4.20;99.90
37844;DHT22;63793;57.632;18.292;2023-12-20T14:23:02;4.20;99.90
37844;DHT22;63793;57.632;18.292;2023-12-20T14:25:29;4.30;99.90
37844;DHT22;63793;57.632;18.292;2023-12-20T14:28:01;4.30;99.90
37844;DHT22;63793;57.632;18.292;2023-12-20T14:30:28;4.30;99.90
37844;DHT22;63793;57.632;18.292;2023-12-20T14:32:55;4.30;99.90
37844;DHT22;63793;57.632;18.292;2023-12-20T14:35:22;4.20;99.90
37844;DHT22;63793;57.632;18.292;2023-12-20T14:37:49;4.30;99.90
37844;DHT22;63793;57.632;18.292;2023-12-20T14:40:16;4.20;99.90
37844;DHT22;63793;57.632;18.292;2023-12-20T14:42:43;4.20;99.90
37844;DHT22;63793;57.632;18.292;2023-12-20T14:45:10;4.20;99.90
37844;DHT22;63793;57.632;18.292;2023-12-20T14:47:37;4.20;99.90
37844;DHT22;63793;57.632;18.292;2023-12-20T14:50:05;4.20;99.90
37844;DHT22;63793;57.632;18.292;2023-12-20T14:52:34;4.20;99.90
37844;DHT22;63793;57.632;18.292;2023-12-20T14:55:01;4.20;99.90
37844;DHT22;63793;57.632;18.292;2023-12-20T14:57:29;4.20;99.90
37844;DHT22;63793;57.632;18.292;2023-12-20T14:59:56;4.30;99.90
37844;DHT22;63793;57.632;18.292;2023-12-20T15:02:23;4.20;99.90
37844;DHT22;63793;57.632;18.292;2023-12-20T15:04:50;4.30;99.90
37844;DHT22;63793;57.632;18.292;2023-12-20T15:07:17;4.20;99.90
37844;DHT22;63793;57.632;18.292;2023-12-20T15:09:44;4.20;99.90
37844;DHT22;63793;57.632;18.292;2023-12-20T15:12:12;4.20;99.90
37844;DHT22;63793;57.632;18.292;2023-12-20T15:14:39;4.10;99.90
37844;DHT22;63793;57.632;18.292;2023-12-20T15:17:06;4.10;99.90
37844;DHT22;63793;57.632;18.292;2023-12-20T15:19:33;4.00;99.90
37844;DHT22;63793;57.632;18.292;2023-12-20T15:22:00;4.00;99.90
37844;DHT22;63793;57.632;18.292;2023-12-20T15:24:27;4.00;99.90
37844;DHT22;63793;57.632;18.292;2023-12-20T15:27:03;4.00;99.90
37844;DHT22;63793;57.632;18.292;2023-12-20T15:29:29;3.90;99.90
37844;DHT22;63793;57.632;18.292;2023-12-20T15:31:57;3.90;99.90
37844;DHT22;63793;57.632;18.292;2023-12-20T15:34:24;3.90;99.90
37844;DHT22;63793;57.632;18.292;2023-12-20T15:36:51;3.90;99.90
37844;DHT22;63793;57.632;18.292;2023-12-20T15:39:18;3.90;99.90
37844;DHT22;63793;57.632;18.292;2023-12-20T15:41:44;3.90;99.90